sensor_id;sensor_type;location;lat;lon;timestamp;pressure;altitude;pressure_sealevel;temperature;humidity
25650;BME280;13505;45.196;5.696;2023-12-14T05:31:32;98904.94;;;8.22;100.00
25650;BME280;13505;45.196;5.696;2023-12-14T05:36:22;98924.66;;;8.32;100.00
25650;BME280;13505;45.196;5.696;2023-12-14T05:41:12;98929.00;;;8.33;100.00
25650;BME280;13505;45.196;5.696;2023-12-14T05:46:03;98936.28;;;8.49;100.00
25650;BME280;13505;45.196;5.696;2023-12-14T05:50:53;98963.75;;;8.19;100.00
25650;BME280;13505;45.196;5.696;2023-12-14T05:55:44;98963.97;;;8.13;100.00
25650;BME280;13505;45.196;5.696;2023-12-14T06:00:35;98974.41;;;8.37;100.00
25650;BME280;13505;45.196;5.696;2023-12-14T06:05:26;98987.28;;;8.45;100.00
25650;BME280;13505;45.196;5.696;2023-12-14T06:10:16;98997.59;;;8.49;100.00
25650;BME280;13505;45.196;5.696;2023-12-14T06:15:07;99004.44;;;8.31;100.00
25650;BME280;13505;45.196;5.696;2023-12-14T06:19:57;99008.78;;;8.32;100.00
25650;BME280;13505;45.196;5.696;2023-12-14T06:24:47;99024.53;;;8.32;100.00
25650;BME280;13505;45.196;5.696;2023-12-14T06:29:38;99044.00;;;8.04;100.00
25650;BME280;13505;45.196;5.696;2023-12-14T06:34:28;99051.84;;;8.28;100.00
25650;BME280;13505;45.196;5.696;2023-12-14T06:39:19;99055.13;;;8.11;100.00
25650;BME280;13505;45.196;5.696;2023-12-14T06:44:09;99068.72;;;8.22;100.00
25650;BME280;13505;45.196;5.696;2023-12-14T06:49:00;99076.19;;;8.33;100.00
25650;BME280;13505;45.196;5.696;2023-12-14T06:53:50;99088.59;;;8.30;100.00
25650;BME280;13505;45.196;5.696;2023-12-14T06:58:43;99086.81;;;8.06;100.00
25650;BME280;13505;45.196;5.696;2023-12-14T07:03:33;99094.84;;;8.03;100.00
25650;BME280;13505;45.196;5.696;2023-12-14T07:08:24;99100.81;;;8.31;100.00
25650;BME280;13505;45.196;5.696;2023-12-14T07:13:14;99116.75;;;8.26;100.00
25650;BME280;13505;45.196;5.696;2023-12-14T07:18:05;99114.97;;;8.27;100.00
25650;BME280;13505;45.196;5.696;2023-12-14T07:22:55;99132.97;;;8.37;100.00
25650;BME280;13505;45.196;5.696;2023-12-14T07:27:45;99147.84;;;8.15;100.00
25650;BME280;13505;45.196;5.696;2023-12-14T07:32:36;99162.50;;;7.96;100.00
25650;BME280;13505;45.196;5.696;2023-12-14T07:37:27;99180.56;;;7.53;100.00
25650;BME280;13505;45.196;5.696;2023-12-14T07:42:17;99185.00;;;8.04;100.00
25650;BME280;13505;45.196;5.696;2023-12-14T07:47:10;99190.34;;;7.75;100.00
25650;BME280;13505;45.196;5.696;2023-12-14T07:52:00;99206.47;;;8.15;100.00
25650;BME280;13505;45.196;5.696;2023-12-14T07:56:51;99216.34;;;8.08;100.00
25650;BME280;13505;45.196;5.696;2023-12-14T08:01:41;99221.72;;;8.05;100.00
25650;BME280;13505;45.196;5.696;2023-12-14T08:06:31;99224.63;;;7.98;100.00
25650;BME280;13505;45.196;5.696;2023-12-14T08:11:22;99236.09;;;8.20;100.00
25650;BME280;13505;45.196;5.696;2023-12-14T08:16:12;99229.13;;;8.19;100.00
25650;BME280;13505;45.196;5.696;2023-12-14T08:21:03;99240.75;;;8.37;100.00
25650;BME280;13505;45.196;5.696;2023-12-14T08:25:53;99252.84;;;8.42;100.00
25650;BME280;13505;45.196;5.696;2023-12-14T08:30:47;99256.47;;;8.39;100.00
25650;BME280;13505;45.196;5.696;2023-12-14T08:35:37;99272.28;;;8.37;100.00
25650;BME280;13505;45.196;5.696;2023-12-14T08:40:27;99283.91;;;8.30;100.00
25650;BME280;13505;45.196;5.696;2023-12-14T08:45:19;99284.34;;;8.43;100.00
25650;BME280;13505;45.196;5.696;2023-12-14T08:50:09;99297.78;;;8.08;100.00
25650;BME280;13505;45.196;5.696;2023-12-14T08:54:59;99302.31;;;8.30;100.00
25650;BME280;13505;45.196;5.696;2023-12-14T08:59:50;99316.09;;;8.37;100.00
25650;BME280;13505;45.196;5.696;2023-12-14T09:04:40;99314.50;;;8.33;100.00
25650;BME280;13505;45.196;5.696;2023-12-14T09:09:30;99327.81;;;8.55;100.00
25650;BME280;13505;45.196;5.696;2023-12-14T09:14:22;99335.69;;;8.28;100.00
25650;BME280;13505;45.196;5.696;2023-12-14T09:19:12;99342.13;;;8.19;100.00
25650;BME280;13505;45.196;5.696;2023-12-14T09:24:03;99352.97;;;8.35;100.00
25650;BME280;13505;45.196;5.696;2023-12-14T09:28:53;99355.69;;;8.59;100.00
25650;BME280;13505;45.196;5.696;2023-12-14T09:33:44;99365.50;;;8.54;100.00
25650;BME280;13505;45.196;5.696;2023-12-14T09:38:34;99372.25;;;8.87;100.00
25650;BME280;13505;45.196;5.696;2023-12-14T09:43:26;99384.28;;;8.94;100.00
25650;BME280;13505;45.196;5.696;2023-12-14T09:48:16;99402.41;;;8.51;100.00
25650;BME280;13505;45.196;5.696;2023-12-14T09:53:06;99411.34;;;8.72;100.00
25650;BME280;13505;45.196;5.696;2023-12-14T09:57:57;99416.38;;;9.04;100.00
25650;BME280;13505;45.196;5.696;2023-12-14T10:02:48;99406.78;;;9.27;100.00
25650;BME280;13505;45.196;5.696;2023-12-14T10:07:42;99414.59;;;9.30;100.00
25650;BME280;13505;45.196;5.696;2023-12-14T10:13:00;99426.75;;;9.32;100.00
25650;BME280;13505;45.196;5.696;2023-12-14T10:17:53;99443.94;;;9.43;98.67
25650;BME280;13505;45.196;5.696;2023-12-14T10:22:44;99437.88;;;9.41;97.85
25650;BME280;13505;45.196;5.696;2023-12-14T10:27:34;99431.84;;;9.37;98.61
25650;BME280;13505;45.196;5.696;2023-12-14T10:32:25;99446.84;;;9.35;98.17
25650;BME280;13505;45.196;5.696;2023-12-14T10:37:15;99449.06;;;9.22;100.00
25650;BME280;13505;45.196;5.696;2023-12-14T10:42:08;99448.69;;;9.33;100.00
25650;BME280;13505;45.196;5.696;2023-12-14T10:46:58;99453.97;;;9.33;100.00
25650;BME280;13505;45.196;5.696;2023-12-14T10:51:50;99467.16;;;9.31;100.00
25650;BME280;13505;45.196;5.696;2023-12-14T10:56:40;99470.56;;;9.35;99.84
25650;BME280;13505;45.196;5.696;2023-12-14T11:01:32;99471.94;;;9.45;99.57
25650;BME280;13505;45.196;5.696;2023-12-14T11:06:29;99476.06;;;9.53;98.91
25650;BME280;13505;45.196;5.696;2023-12-14T11:11:21;99488.91;;;9.62;97.05
25650;BME280;13505;45.196;5.696;2023-12-14T11:16:11;99494.44;;;9.54;96.53
25650;BME280;13505;45.196;5.696;2023-12-14T11:21:02;99498.78;;;9.55;96.66
25650;BME280;13505;45.196;5.696;2023-12-14T11:25:54;99500.72;;;9.50;95.69
25650;BME280;13505;45.196;5.696;2023-12-14T11:30:44;99503.19;;;9.55;95.00
25650;BME280;13505;45.196;5.696;2023-12-14T11:35:35;99501.63;;;9.74;94.69
25650;BME280;13505;45.196;5.696;2023-12-14T11:40:25;99510.72;;;9.89;93.86
25650;BME280;13505;45.196;5.696;2023-12-14T11:45:16;99519.75;;;9.82;93.63
25650;BME280;13505;45.196;5.696;2023-12-14T11:50:07;99512.72;;;9.83;92.81
25650;BME280;13505;45.196;5.696;2023-12-14T11:54:59;99530.34;;;9.81;92.74
25650;BME280;13505;45.196;5.696;2023-12-14T11:59:50;99533.97;;;10.02;92.47
25650;BME280;13505;45.196;5.696;2023-12-14T12:04:50;99532.69;;;10.34;93.05
25650;BME280;13505;45.196;5.696;2023-12-14T12:09:42;99523.91;;;10.36;90.69
25650;BME280;13505;45.196;5.696;2023-12-14T12:14:33;99533.56;;;10.35;88.60
25650;BME280;13505;45.196;5.696;2023-12-14T12:19:23;99546.13;;;10.52;88.66
25650;BME280;13505;45.196;5.696;2023-12-14T12:24:13;99546.22;;;10.71;86.59
25650;BME280;13505;45.196;5.696;2023-12-14T12:29:04;99538.03;;;10.79;86.11
25650;BME280;13505;45.196;5.696;2023-12-14T12:33:56;99542.44;;;10.56;86.39
25650;BME280;13505;45.196;5.696;2023-12-14T12:38:46;99545.47;;;10.90;87.48
25650;BME280;13505;45.196;5.696;2023-12-14T12:43:36;99552.22;;;10.30;87.06
25650;BME280;13505;45.196;5.696;2023-12-14T12:48:27;99556.25;;;10.63;88.45
25650;BME280;13505;45.196;5.696;2023-12-14T12:53:17;99557.75;;;10.91;87.71
25650;BME280;13505;45.196;5.696;2023-12-14T12:58:08;99570.28;;;10.86;88.65
25650;BME280;13505;45.196;5.696;2023-12-14T13:02:58;99563.16;;;10.88;86.35
25650;BME280;13505;45.196;5.696;2023-12-14T13:07:51;99570.38;;;11.05;86.81
25650;BME280;13505;45.196;5.696;2023-12-14T13:12:41;99558.03;;;10.85;87.60
25650;BME280;13505;45.196;5.696;2023-12-14T13:17:32;99572.38;;;10.78;91.30
25650;BME280;13505;45.196;5.696;2023-12-14T13:22:22;99572.63;;;10.94;88.97
25650;BME280;13505;45.196;5.696;2023-12-14T13:27:12;99576.69;;;10.80;89.30
25650;BME280;13505;45.196;5.696;2023-12-14T13:32:03;99585.06;;;10.90;91.34
25650;BME280;13505;45.196;5.696;2023-12-14T13:36:54;99593.25;;;10.84;88.16
25650;BME280;13505;45.196;5.696;2023-12-14T13:41:45;99603.31;;;10.52;87.75
25650;BME280;13505;45.196;5.696;2023-12-14T13:46:35;99614.06;;;10.22;89.22
25650;BME280;13505;45.196;5.696;2023-12-14T13:51:26;99625.59;;;10.19;90.44
25650;BME280;13505;45.196;5.696;2023-12-14T13:56:16;99627.81;;;10.30;88.11
25650;BME280;13505;45.196;5.696;2023-12-14T14:01:06;99629.34;;;10.12;89.03
25650;BME280;13505;45.196;5.696;2023-12-14T14:05:57;99642.38;;;10.16;91.13
25650;BME280;13505;45.196;5.696;2023-12-14T14:10:48;99650.06;;;10.23;90.16
25650;BME280;13505;45.196;5.696;2023-12-14T14:15:38;99659.81;;;10.21;89.29
25650;BME280;13505;45.196;5.696;2023-12-14T14:20:28;99655.69;;;9.62;93.32
25650;BME280;13505;45.196;5.696;2023-12-14T14:25:19;99661.84;;;9.88;91.83
25650;BME280;13505;45.196;5.696;2023-12-14T14:30:10;99672.88;;;9.73;91.10
25650;BME280;13505;45.196;5.696;2023-12-14T14:35:04;99692.44;;;9.66;92.11
25650;BME280;13505;45.196;5.696;2023-12-14T14:39:54;99709.88;;;9.70;92.71
25650;BME280;13505;45.196;5.696;2023-12-14T14:44:45;99718.63;;;9.70;94.35
25650;BME280;13505;45.196;5.696;2023-12-14T14:49:35;99722.59;;;9.57;96.62
25650;BME280;13505;45.196;5.696;2023-12-14T14:54:25;99731.53;;;9.53;97.75
25650;BME280;13505;45.196;5.696;2023-12-14T14:59:16;99731.75;;;9.45;98.18
25650;BME280;13505;45.196;5.696;2023-12-14T15:04:06;99746.44;;;9.25;100.00
25650;BME280;13505;45.196;5.696;2023-12-14T15:08:57;99747.16;;;9.29;100.00
25650;BME280;13505;45.196;5.696;2023-12-14T15:13:47;99762.63;;;9.40;100.00
25650;BME280;13505;45.196;5.696;2023-12-14T15:18:37;99761.69;;;9.42;100.00
25650;BME280;13505;45.196;5.696;2023-12-14T15:23:31;99761.22;;;9.29;100.00
25650;BME280;13505;45.196;5.696;2023-12-14T15:28:21;99768.84;;;9.08;100.00
25650;BME280;13505;45.196;5.696;2023-12-14T15:33:12;99781.06;;;9.11;100.00
25650;BME280;13505;45.196;5.696;2023-12-14T15:38:02;99787.19;;;9.12;100.00
25650;BME280;13505;45.196;5.696;2023-12-14T15:42:53;99801.56;;;8.70;100.00
25650;BME280;13505;45.196;5.696;2023-12-14T15:47:46;99808.78;;;8.93;100.00
25650;BME280;13505;45.196;5.696;2023-12-14T15:52:36;99808.25;;;8.82;100.00
25650;BME280;13505;45.196;5.696;2023-12-14T15:57:26;99820.56;;;8.79;100.00
25650;BME280;13505;45.196;5.696;2023-12-14T16:02:17;99824.09;;;8.45;100.00
25650;BME280;13505;45.196;5.696;2023-12-14T16:07:07;99839.44;;;8.62;100.00
25650;BME280;13505;45.196;5.696;2023-12-14T16:11:58;99840.56;;;8.85;100.00
25650;BME280;13505;45.196;5.696;2023-12-14T16:16:50;99845.13;;;8.78;100.00
25650;BME280;13505;45.196;5.696;2023-12-14T16:21:40;99858.06;;;8.86;100.00
25650;BME280;13505;45.196;5.696;2023-12-14T16:26:31;99860.13;;;8.75;100.00
25650;BME280;13505;45.196;5.696;2023-12-14T16:31:22;99875.16;;;8.71;100.00
25650;BME280;13505;45.196;5.696;2023-12-14T16:36:13;99880.88;;;8.87;100.00
25650;BME280;13505;45.196;5.696;2023-12-14T16:41:04;99902.72;;;8.89;100.00
25650;BME280;13505;45.196;5.696;2023-12-14T16:45:55;99913.50;;;8.80;100.00
25650;BME280;13505;45.196;5.696;2023-12-14T16:50:46;99913.50;;;8.80;100.00
25650;BME280;13505;45.196;5.696;2023-12-14T16:55:43;99923.16;;;8.79;100.00
25650;BME280;13505;45.196;5.696;2023-12-14T17:00:33;99932.69;;;8.84;100.00
25650;BME280;13505;45.196;5.696;2023-12-14T17:05:25;99938.16;;;8.76;100.00
25650;BME280;13505;45.196;5.696;2023-12-14T17:10:15;99949.34;;;8.84;100.00
25650;BME280;13505;45.196;5.696;2023-12-14T17:15:06;99956.19;;;8.90;100.00
25650;BME280;13505;45.196;5.696;2023-12-14T17:20:01;99959.41;;;8.68;100.00
25650;BME280;13505;45.196;5.696;2023-12-14T17:24:53;99978.25;;;8.86;100.00
25650;BME280;13505;45.196;5.696;2023-12-14T17:29:43;99993.03;;;8.90;100.00
25650;BME280;13505;45.196;5.696;2023-12-14T17:34:34;100001.53;;;8.67;100.00
25650;BME280;13505;45.196;5.696;2023-12-14T17:39:24;100009.44;;;8.65;100.00
25650;BME280;13505;45.196;5.696;2023-12-14T17:44:15;100022.22;;;8.80;100.00
25650;BME280;13505;45.196;5.696;2023-12-14T17:49:05;100033.75;;;8.75;100.00
25650;BME280;13505;45.196;5.696;2023-12-14T17:53:56;100036.50;;;8.70;100.00
25650;BME280;13505;45.196;5.696;2023-12-14T17:58:47;100032.94;;;8.73;100.00
25650;BME280;13505;45.196;5.696;2023-12-14T18:03:38;100050.31;;;8.78;100.00
25650;BME280;13505;45.196;5.696;2023-12-14T18:08:28;100044.47;;;8.67;100.00
25650;BME280;13505;45.196;5.696;2023-12-14T18:13:18;100056.69;;;8.70;100.00
25650;BME280;13505;45.196;5.696;2023-12-14T18:18:10;100055.81;;;8.69;100.00
25650;BME280;13505;45.196;5.696;2023-12-14T18:23:00;100059.28;;;8.71;100.00
25650;BME280;13505;45.196;5.696;2023-12-14T18:27:51;100067.00;;;8.77;100.00
25650;BME280;13505;45.196;5.696;2023-12-14T18:32:43;100070.19;;;8.54;100.00
25650;BME280;13505;45.196;5.696;2023-12-14T18:37:36;100078.56;;;8.70;100.00
25650;BME280;13505;45.196;5.696;2023-12-14T18:42:27;100076.75;;;8.74;100.00
25650;BME280;13505;45.196;5.696;2023-12-14T18:47:17;100078.66;;;8.67;100.00
25650;BME280;13505;45.196;5.696;2023-12-14T18:52:07;100091.88;;;8.64;100.00
25650;BME280;13505;45.196;5.696;2023-12-14T18:56:58;100112.16;;;8.59;100.00
25650;BME280;13505;45.196;5.696;2023-12-14T19:01:49;100109.22;;;8.73;100.00
25650;BME280;13505;45.196;5.696;2023-12-14T19:06:40;100115.34;;;8.73;100.00
25650;BME280;13505;45.196;5.696;2023-12-14T19:11:30;100118.94;;;8.69;100.00
25650;BME280;13505;45.196;5.696;2023-12-14T19:16:28;100140.84;;;8.71;100.00
25650;BME280;13505;45.196;5.696;2023-12-14T19:21:23;100143.50;;;8.70;100.00
25650;BME280;13505;45.196;5.696;2023-12-14T19:31:08;100149.84;;;8.59;100.00
25650;BME280;13505;45.196;5.696;2023-12-14T19:35:58;100164.84;;;8.56;100.00
25650;BME280;13505;45.196;5.696;2023-12-14T19:40:48;100164.75;;;8.59;100.00
25650;BME280;13505;45.196;5.696;2023-12-14T19:45:39;100169.97;;;8.62;100.00
25650;BME280;13505;45.196;5.696;2023-12-14T19:50:29;100181.94;;;8.33;100.00
25650;BME280;13505;45.196;5.696;2023-12-14T19:55:19;100189.00;;;8.29;100.00
25650;BME280;13505;45.196;5.696;2023-12-14T20:00:10;100199.31;;;7.94;100.00
25650;BME280;13505;45.196;5.696;2023-12-14T20:05:01;100201.69;;;8.07;100.00
25650;BME280;13505;45.196;5.696;2023-12-14T20:09:51;100207.38;;;8.31;100.00
25650;BME280;13505;45.196;5.696;2023-12-14T20:14:43;100212.81;;;8.21;100.00
25650;BME280;13505;45.196;5.696;2023-12-14T20:19:33;100222.44;;;8.24;100.00
25650;BME280;13505;45.196;5.696;2023-12-14T20:24:24;100218.28;;;8.10;100.00
25650;BME280;13505;45.196;5.696;2023-12-14T20:29:14;100222.56;;;8.16;100.00
25650;BME280;13505;45.196;5.696;2023-12-14T20:34:05;100225.25;;;8.12;100.00
25650;BME280;13505;45.196;5.696;2023-12-14T20:38:55;100225.72;;;8.35;100.00
25650;BME280;13505;45.196;5.696;2023-12-14T20:43:46;100235.31;;;8.36;100.00
25650;BME280;13505;45.196;5.696;2023-12-14T20:48:36;100248.72;;;8.24;100.00
25650;BME280;13505;45.196;5.696;2023-12-14T20:53:29;100238.84;;;8.35;100.00
25650;BME280;13505;45.196;5.696;2023-12-14T20:58:20;100239.69;;;8.37;100.00
25650;BME280;13505;45.196;5.696;2023-12-14T21:03:11;100250.38;;;8.27;100.00
25650;BME280;13505;45.196;5.696;2023-12-14T21:08:01;100248.47;;;8.35;100.00
25650;BME280;13505;45.196;5.696;2023-12-14T21:12:52;100253.81;;;8.32;100.00
25650;BME280;13505;45.196;5.696;2023-12-14T21:17:42;100254.63;;;8.35;100.00
25650;BME280;13505;45.196;5.696;2023-12-14T21:22:33;100254.75;;;8.28;100.00
25650;BME280;13505;45.196;5.696;2023-12-14T21:27:23;100265.22;;;8.31;100.00
25650;BME280;13505;45.196;5.696;2023-12-14T21:32:32;100275.50;;;8.43;100.00
25650;BME280;13505;45.196;5.696;2023-12-14T21:37:22;100268.66;;;8.34;100.00
25650;BME280;13505;45.196;5.696;2023-12-14T21:42:12;100280.75;;;8.45;100.00
25650;BME280;13505;45.196;5.696;2023-12-14T21:47:03;100278.91;;;8.48;100.00
25650;BME280;13505;45.196;5.696;2023-12-14T21:51:53;100277.50;;;8.30;100.00
25650;BME280;13505;45.196;5.696;2023-12-14T21:56:44;100289.50;;;8.44;100.00
25650;BME280;13505;45.196;5.696;2023-12-14T22:01:35;100283.91;;;8.15;100.00
25650;BME280;13505;45.196;5.696;2023-12-14T22:06:25;100297.63;;;8.31;100.00
25650;BME280;13505;45.196;5.696;2023-12-14T22:11:15;100297.59;;;8.34;100.00
25650;BME280;13505;45.196;5.696;2023-12-14T22:16:06;100297.69;;;8.28;100.00
25650;BME280;13505;45.196;5.696;2023-12-14T22:20:56;100303.28;;;8.09;100.00
25650;BME280;13505;45.196;5.696;2023-12-14T22:25:47;100318.88;;;8.19;100.00
25650;BME280;13505;45.196;5.696;2023-12-14T22:30:37;100327.59;;;8.22;100.00
25650;BME280;13505;45.196;5.696;2023-12-14T22:35:28;100339.75;;;8.28;100.00
25650;BME280;13505;45.196;5.696;2023-12-14T22:40:18;100352.75;;;8.36;99.08
25650;BME280;13505;45.196;5.696;2023-12-14T22:45:08;100359.91;;;8.28;99.88
25650;BME280;13505;45.196;5.696;2023-12-14T22:49:59;100353.66;;;8.33;98.87
25650;BME280;13505;45.196;5.696;2023-12-14T22:54:49;100361.59;;;8.32;98.86
25650;BME280;13505;45.196;5.696;2023-12-14T22:59:39;100362.50;;;8.31;98.06
